Time;durP1;ratioP1;P1;durP2;ratioP2;P2;SDS_P1;SDS_P2;PMS_P1;PMS_P2;Temp;Humidity;BMP_temperature;BMP_pressure;BME280_temperature;BME280_humidity;BME280_pressure;Samples;Min_cycle;Max_cycle;Signal;HPM_P1;HPM_P2
2021/04/27 00:02:17;;;;;;;2.53;1.00;;;20.70;26.30;;;;;;5096222;28;20043;-64
2021/04/27 00:04:43;;;;;;;2.10;0.77;;;20.70;26.30;;;;;;5095463;28;20051;-64
2021/04/27 00:07:08;;;;;;;2.83;0.77;;;20.70;26.30;;;;;;5095008;28;20472;-64
2021/04/27 00:09:34;;;;;;;1.77;0.82;;;20.70;26.30;;;;;;5094351;28;20085;-64
2021/04/27 00:12:00;;;;;;;1.75;0.90;;;20.70;26.30;;;;;;5094492;28;20024;-64
2021/04/27 00:14:26;;;;;;;3.13;0.82;;;20.70;26.30;;;;;;5094360;28;20030;-64
2021/04/27 00:16:52;;;;;;;1.73;0.88;;;20.70;26.30;;;;;;5094311;28;20220;-64
2021/04/27 00:19:17;;;;;;;3.08;0.63;;;20.70;26.30;;;;;;5094091;28;20074;-65
2021/04/27 00:21:43;;;;;;;1.67;0.70;;;20.70;26.30;;;;;;5094107;28;20066;-65
2021/04/27 00:24:09;;;;;;;2.13;0.73;;;20.60;26.30;;;;;;5093836;28;20476;-64
2021/04/27 00:26:34;;;;;;;1.98;0.80;;;20.70;26.40;;;;;;5094222;28;20067;-65
2021/04/27 00:29:00;;;;;;;3.78;1.15;;;20.60;26.30;;;;;;5094012;28;20059;-65
2021/04/27 00:31:27;;;;;;;1.42;0.77;;;20.60;26.30;;;;;;5094055;28;20024;-65
2021/04/27 00:33:54;;;;;;;2.00;0.77;;;20.60;26.30;;;;;;5093947;28;20012;-65
2021/04/27 00:36:20;;;;;;;4.78;1.00;;;20.60;26.30;;;;;;5093794;28;20020;-65
2021/04/27 00:38:45;;;;;;;2.53;1.00;;;20.60;26.30;;;;;;5093694;28;20432;-65
2021/04/27 00:41:11;;;;;;;2.25;0.77;;;20.70;26.30;;;;;;5093774;28;20444;-65
2021/04/27 00:43:36;;;;;;;1.20;0.70;;;20.60;26.30;;;;;;5093525;28;20472;-65
2021/04/27 00:46:02;;;;;;;1.73;0.80;;;20.60;26.30;;;;;;5093659;28;20114;-64
2021/04/27 00:48:27;;;;;;;2.17;0.75;;;20.60;26.30;;;;;;5093337;28;20020;-64
2021/04/27 00:50:53;;;;;;;1.73;0.70;;;20.60;26.30;;;;;;5093177;28;20032;-64
2021/04/27 00:53:19;;;;;;;2.95;0.85;;;20.60;26.30;;;;;;5093574;28;20025;-64
2021/04/27 00:55:45;;;;;;;1.75;0.68;;;20.60;26.30;;;;;;5094110;28;20471;-65
2021/04/27 00:58:10;;;;;;;2.20;0.80;;;20.50;26.30;;;;;;5094044;28;20074;-64
2021/04/27 01:00:39;;;;;;;1.70;0.80;;;20.50;26.30;;;;;;5093915;28;20498;-64
2021/04/27 01:03:05;;;;;;;3.67;1.20;;;20.50;26.40;;;;;;5093815;28;20055;-64
2021/04/27 01:05:34;;;;;;;2.40;0.77;;;20.50;26.30;;;;;;5096648;28;20321;-64
2021/04/27 01:08:21;;;;;;;1.08;0.52;;;20.50;26.40;;;;;;5097642;28;20020;-63
2021/04/27 01:11:05;;;;;;;2.30;0.90;;;20.50;26.40;;;;;;5097640;28;20043;-64
2021/04/27 01:13:36;;;;;;;;;;;20.50;26.40;;;;;;5098095;28;20024;-63
2021/04/27 01:16:03;;;;;;;1.33;0.50;;;20.50;26.30;;;;;;5097586;28;19990;-63
2021/04/27 01:18:32;;;;;;;2.42;0.80;;;20.50;26.40;;;;;;5097404;28;20416;-65
2021/04/27 01:21:00;;;;;;;3.25;0.95;;;20.50;26.40;;;;;;5097308;28;20093;-64
2021/04/27 01:23:36;;;;;;;2.55;0.90;;;20.50;26.40;;;;;;5097384;28;20349;-64
2021/04/27 01:26:07;;;;;;;2.10;0.80;;;20.50;26.50;;;;;;5097222;28;20391;-64
2021/04/27 01:28:35;;;;;;;2.05;0.98;;;20.50;26.40;;;;;;5097699;28;20058;-64
2021/04/27 01:31:04;;;;;;;1.73;0.70;;;20.50;26.40;;;;;;5097442;28;20097;-64
2021/04/27 01:33:31;;;;;;;2.15;1.08;;;20.50;26.40;;;;;;5097049;28;20040;-64
2021/04/27 01:35:59;;;;;;;2.25;0.95;;;20.50;26.40;;;;;;5096962;28;20016;-64
2021/04/27 01:38:25;;;;;;;2.20;0.90;;;20.50;26.40;;;;;;5097168;28;20044;-64
2021/04/27 01:40:52;;;;;;;1.67;0.73;;;20.50;26.40;;;;;;5096936;28;20091;-64
2021/04/27 01:43:19;;;;;;;2.58;0.98;;;20.50;26.40;;;;;;5097195;28;20175;-64
2021/04/27 01:45:46;;;;;;;1.90;0.88;;;20.40;26.40;;;;;;5097091;28;20036;-64
2021/04/27 01:48:12;;;;;;;2.90;0.95;;;20.50;26.40;;;;;;5096639;28;20365;-64
2021/04/27 01:50:41;;;;;;;2.08;1.00;;;20.50;26.50;;;;;;5096722;28;20032;-64
2021/04/27 01:53:08;;;;;;;2.35;1.02;;;20.50;26.40;;;;;;5107080;28;20021;-64
2021/04/27 01:55:34;;;;;;;1.38;0.80;;;20.50;26.50;;;;;;5104165;28;20028;-64
2021/04/27 01:57:59;;;;;;;3.08;0.90;;;20.50;26.40;;;;;;5097311;28;20460;-64
2021/04/27 02:00:25;;;;;;;2.58;1.17;;;20.40;26.40;;;;;;5097370;28;20059;-64
2021/04/27 02:02:51;;;;;;;1.83;0.90;;;20.40;26.40;;;;;;5097101;28;20020;-64
2021/04/27 02:05:17;;;;;;;2.55;0.77;;;20.40;26.40;;;;;;5097306;28;20089;-64
2021/04/27 02:07:43;;;;;;;3.70;1.13;;;20.40;26.50;;;;;;5096920;28;20048;-64
2021/04/27 02:10:11;;;;;;;2.10;0.82;;;20.40;26.40;;;;;;5096843;28;20035;-64
2021/04/27 02:12:40;;;;;;;2.17;0.90;;;20.40;26.40;;;;;;5096526;28;20024;-64
2021/04/27 02:15:07;;;;;;;4.07;1.23;;;20.40;26.50;;;;;;5096632;28;20065;-64
2021/04/27 02:17:46;;;;;;;3.08;1.05;;;20.40;26.40;;;;;;5096846;28;20020;-64
2021/04/27 02:20:13;;;;;;;3.60;1.00;;;20.40;26.50;;;;;;5096901;28;20028;-64
2021/04/27 02:22:41;;;;;;;3.15;1.10;;;20.40;26.50;;;;;;5096490;28;20052;-64
2021/04/27 02:25:09;;;;;;;2.17;1.08;;;20.40;26.50;;;;;;5096325;28;20421;-64
2021/04/27 02:27:36;;;;;;;2.30;1.00;;;20.40;26.40;;;;;;5096741;28;20035;-64
2021/04/27 02:30:07;;;;;;;2.53;1.02;;;20.40;26.50;;;;;;5095467;28;20073;-64
2021/04/27 02:32:33;;;;;;;3.00;1.25;;;20.40;26.50;;;;;;5096500;28;20392;-64
2021/04/27 02:34:59;;;;;;;1.77;0.85;;;20.40;26.50;;;;;;5096417;28;20103;-64
2021/04/27 02:37:25;;;;;;;2.80;1.10;;;20.30;26.50;;;;;;5096502;28;20028;-64
2021/04/27 02:39:53;;;;;;;2.20;1.00;;;20.40;26.50;;;;;;5096469;28;20414;-64
2021/04/27 02:42:19;;;;;;;3.65;1.20;;;20.40;26.50;;;;;;5095151;28;20078;-64
2021/04/27 02:44:45;;;;;;;3.60;1.58;;;20.40;26.50;;;;;;5096088;28;20036;-64
2021/04/27 02:47:10;;;;;;;1.90;1.00;;;20.40;26.50;;;;;;5096086;28;20488;-64
2021/04/27 02:49:36;;;;;;;2.50;1.33;;;20.40;26.50;;;;;;5095952;28;20110;-64
2021/04/27 02:52:02;;;;;;;3.20;1.08;;;20.40;26.50;;;;;;5094839;28;20059;-65
2021/04/27 02:54:28;;;;;;;2.10;1.02;;;20.40;26.50;;;;;;5095831;28;20043;-64
2021/04/27 02:56:53;;;;;;;2.63;0.90;;;20.30;26.50;;;;;;5095957;28;20387;-64
2021/04/27 02:59:19;;;;;;;2.60;1.08;;;20.40;26.50;;;;;;5095701;28;20482;-64
2021/04/27 03:01:44;;;;;;;2.70;1.20;;;20.40;26.50;;;;;;5096096;28;20032;-64
2021/04/27 03:04:10;;;;;;;2.92;1.00;;;20.30;26.50;;;;;;5095583;28;20094;-64
2021/04/27 03:06:35;;;;;;;4.75;1.10;;;20.40;26.50;;;;;;5095917;28;20032;-64
2021/04/27 03:09:02;;;;;;;2.13;1.10;;;20.30;26.60;;;;;;5095769;28;20023;-64
2021/04/27 03:11:28;;;;;;;2.08;1.00;;;20.30;26.50;;;;;;5095733;28;20032;-64
2021/04/27 03:13:54;;;;;;;3.65;1.10;;;20.30;26.50;;;;;;5095612;28;20364;-64
2021/04/27 03:16:20;;;;;;;2.63;1.25;;;20.30;26.50;;;;;;5096064;28;20107;-64
2021/04/27 03:18:46;;;;;;;2.25;1.13;;;20.30;26.50;;;;;;5095760;28;20039;-64
2021/04/27 03:21:12;;;;;;;4.05;1.17;;;20.30;26.50;;;;;;5095705;28;20044;-64
2021/04/27 03:23:37;;;;;;;2.42;1.05;;;20.30;26.50;;;;;;5094201;28;20079;-64
2021/04/27 03:26:03;;;;;;;1.92;1.02;;;20.20;26.50;;;;;;5095300;28;20483;-64
2021/04/27 03:28:29;;;;;;;2.58;0.98;;;20.30;26.50;;;;;;5095156;28;20490;-64
2021/04/27 03:30:54;;;;;;;2.47;1.00;;;20.30;26.50;;;;;;5095563;28;20349;-64
2021/04/27 03:33:20;;;;;;;1.80;1.00;;;20.30;26.50;;;;;;5094748;28;20016;-64
2021/04/27 03:35:45;;;;;;;3.92;1.13;;;20.30;26.50;;;;;;5094956;28;20055;-64
2021/04/27 03:38:12;;;;;;;1.77;0.93;;;20.20;26.50;;;;;;5094319;28;20099;-64
2021/04/27 03:40:39;;;;;;;4.65;1.27;;;20.20;26.50;;;;;;5095228;28;20168;-64
2021/04/27 03:43:05;;;;;;;2.67;1.13;;;20.20;26.50;;;;;;5094670;28;20028;-64
2021/04/27 03:45:37;;;;;;;2.63;1.17;;;20.20;26.60;;;;;;5096977;28;20365;-64
2021/04/27 03:48:23;;;;;;;3.08;1.20;;;20.20;26.50;;;;;;5102711;28;20020;-64
2021/04/27 03:50:50;;;;;;;2.83;1.23;;;20.20;26.50;;;;;;5096525;28;20024;-64
2021/04/27 03:53:15;;;;;;;2.42;1.10;;;20.20;26.50;;;;;;5095501;28;20028;-64
2021/04/27 03:55:41;;;;;;;1.75;0.98;;;20.20;26.60;;;;;;5095530;28;20475;-64
2021/04/27 03:58:07;;;;;;;2.88;1.10;;;20.20;26.50;;;;;;5095115;28;20028;-64
2021/04/27 04:00:34;;;;;;;3.38;1.40;;;20.20;26.50;;;;;;5094680;28;20028;-64
2021/04/27 04:03:00;;;;;;;3.08;1.13;;;20.20;26.50;;;;;;5094553;28;20038;-66
2021/04/27 04:05:26;;;;;;;2.60;1.10;;;20.20;26.50;;;;;;5094274;28;20028;-64
2021/04/27 04:07:52;;;;;;;4.03;1.17;;;20.20;26.50;;;;;;5094613;28;20031;-64
2021/04/27 04:10:18;;;;;;;2.47;0.98;;;20.20;26.50;;;;;;5094299;28;20045;-64
2021/04/27 04:12:44;;;;;;;4.53;1.02;;;20.20;26.50;;;;;;5094239;28;20016;-64
2021/04/27 04:15:16;;;;;;;3.63;1.52;;;20.20;26.50;;;;;;5094112;28;20028;-64
2021/04/27 04:17:42;;;;;;;2.85;1.10;;;20.20;26.50;;;;;;5092886;28;20032;-64
2021/04/27 04:20:16;;;;;;;4.55;1.67;;;20.30;26.40;;;;;;5093117;28;20030;-64
2021/04/27 04:22:42;;;;;;;3.63;1.25;;;20.30;26.40;;;;;;5094358;28;20050;-64
2021/04/27 04:25:12;;;;;;;1.90;0.90;;;20.30;26.40;;;;;;5094078;28;20122;-64
2021/04/27 04:27:37;;;;;;;2.45;1.15;;;20.30;26.40;;;;;;5094090;28;20024;-64
2021/04/27 04:30:11;;;;;;;2.55;1.00;;;20.30;26.40;;;;;;5093965;28;20031;-64
2021/04/27 04:32:38;;;;;;;2.80;1.20;;;20.30;26.40;;;;;;5094051;28;20029;-64
2021/04/27 04:35:04;;;;;;;2.67;1.10;;;20.30;26.40;;;;;;5093906;28;20090;-65
2021/04/27 04:37:29;;;;;;;3.50;1.30;;;20.40;26.40;;;;;;5094102;28;20357;-64
2021/04/27 04:39:55;;;;;;;3.08;1.20;;;20.40;26.30;;;;;;5093240;28;20032;-64
2021/04/27 04:42:20;;;;;;;3.22;1.30;;;20.40;26.30;;;;;;5094285;28;20472;-64
2021/04/27 04:44:46;;;;;;;3.67;1.30;;;20.40;26.30;;;;;;5093993;28;20088;-64
2021/04/27 04:47:11;;;;;;;3.00;1.33;;;20.40;26.30;;;;;;5093983;28;20515;-64
2021/04/27 04:49:37;;;;;;;2.83;0.95;;;20.40;26.30;;;;;;5093793;28;20100;-64
2021/04/27 04:52:03;;;;;;;1.73;0.88;;;20.40;26.30;;;;;;5093710;28;20032;-64
2021/04/27 04:54:28;;;;;;;2.80;1.13;;;20.50;26.30;;;;;;5093295;28;20099;-64
2021/04/27 04:56:54;;;;;;;2.38;1.05;;;20.40;26.30;;;;;;5093775;28;20111;-64
2021/04/27 04:59:19;;;;;;;4.18;1.10;;;20.40;26.30;;;;;;5093685;28;20028;-64
2021/04/27 05:01:45;;;;;;;3.15;1.10;;;20.50;26.30;;;;;;5094194;28;20486;-64
2021/04/27 05:04:10;;;;;;;4.10;1.30;;;20.40;26.30;;;;;;5093593;28;20020;-64
2021/04/27 05:06:39;;;;;;;2.67;1.00;;;20.50;26.30;;;;;;5093636;28;20055;-64
2021/04/27 05:09:07;;;;;;;1.92;0.85;;;20.40;26.30;;;;;;5094442;28;20022;-63
2021/04/27 05:11:32;;;;;;;3.08;1.20;;;20.50;26.30;;;;;;5095323;28;20050;-64
2021/04/27 05:13:59;;;;;;;1.95;0.80;;;20.40;26.20;;;;;;5092061;28;20123;-64
2021/04/27 05:16:25;;;;;;;1.77;1.02;;;20.40;26.30;;;;;;5093562;28;20020;-64
2021/04/27 05:18:52;;;;;;;2.40;1.08;;;20.50;26.20;;;;;;5093499;28;20024;-64
2021/04/27 05:21:17;;;;;;;3.08;1.00;;;20.50;26.30;;;;;;5093246;28;20059;-65
2021/04/27 05:23:44;;;;;;;2.72;0.88;;;20.40;26.30;;;;;;5093489;28;20032;-64
2021/04/27 05:26:10;;;;;;;3.10;1.10;;;20.50;26.30;;;;;;5093312;28;20028;-64
2021/04/27 05:28:35;;;;;;;2.00;1.00;;;20.50;26.30;;;;;;5093559;28;20020;-64
2021/04/27 05:31:01;;;;;;;3.45;1.15;;;20.40;26.30;;;;;;5093614;28;20456;-64
2021/04/27 05:33:26;;;;;;;3.33;1.10;;;20.50;26.30;;;;;;5093419;28;20487;-64
2021/04/27 05:35:52;;;;;;;1.83;1.00;;;20.40;26.30;;;;;;5093397;28;20031;-64
2021/04/27 05:38:18;;;;;;;1.80;0.90;;;20.40;26.30;;;;;;5093632;28;20035;-64
2021/04/27 05:40:43;;;;;;;2.22;0.93;;;20.40;26.30;;;;;;5093287;28;20099;-64
2021/04/27 05:43:09;;;;;;;2.47;1.10;;;20.40;26.30;;;;;;5093513;28;20117;-64
2021/04/27 05:45:35;;;;;;;4.00;1.13;;;20.40;26.30;;;;;;5093230;28;20036;-64
2021/04/27 05:48:00;;;;;;;2.78;1.10;;;20.40;26.30;;;;;;5093328;28;20027;-64
2021/04/27 05:50:27;;;;;;;1.67;0.73;;;20.40;26.30;;;;;;5094383;28;20464;-64
2021/04/27 05:52:53;;;;;;;2.00;0.98;;;20.40;26.30;;;;;;5096815;28;20016;-64
2021/04/27 05:55:18;;;;;;;3.25;1.40;;;20.40;26.20;;;;;;5097091;28;20486;-64
2021/04/27 05:57:44;;;;;;;2.38;1.10;;;20.40;26.20;;;;;;5097085;28;20024;-64
2021/04/27 06:00:10;;;;;;;2.00;0.90;;;20.50;26.30;;;;;;5097301;28;20024;-64
2021/04/27 06:02:36;;;;;;;2.63;1.08;;;20.50;26.20;;;;;;5097144;28;20023;-64
2021/04/27 06:05:02;;;;;;;2.90;1.23;;;20.50;26.20;;;;;;5097092;28;20044;-64
2021/04/27 06:07:27;;;;;;;2.30;1.20;;;20.50;26.20;;;;;;5096956;28;20028;-64
2021/04/27 06:09:53;;;;;;;2.33;0.90;;;20.50;26.30;;;;;;5096160;28;20024;-64
2021/04/27 06:12:18;;;;;;;3.10;1.02;;;20.50;26.20;;;;;;5096747;28;20377;-64
2021/04/27 06:14:44;;;;;;;2.65;1.10;;;20.50;26.20;;;;;;5096427;28;20025;-64
2021/04/27 06:17:09;;;;;;;2.47;0.98;;;20.50;26.20;;;;;;5098274;28;20472;-64
2021/04/27 06:19:35;;;;;;;1.95;1.05;;;20.50;26.20;;;;;;5099254;28;20126;-65
2021/04/27 06:22:01;;;;;;;4.10;1.30;;;20.50;26.20;;;;;;5098852;28;20486;-65
2021/04/27 06:24:26;;;;;;;5.22;1.30;;;20.50;26.20;;;;;;5098188;28;20429;-64
2021/04/27 06:26:52;;;;;;;2.97;0.90;;;20.50;26.20;;;;;;5096741;28;20506;-65
2021/04/27 06:29:17;;;;;;;2.95;1.02;;;20.50;26.20;;;;;;5076967;28;20103;-63
2021/04/27 06:31:43;;;;;;;2.28;0.80;;;20.60;26.00;;;;;;5094843;28;20043;-63
2021/04/27 06:34:09;;;;;;;2.78;1.00;;;20.70;25.90;;;;;;5075214;28;20039;-63
2021/04/27 06:36:35;;;;;;;2.97;1.10;;;20.80;25.80;;;;;;5076930;28;20059;-63
2021/04/27 06:39:03;;;;;;;2.05;0.88;;;20.90;25.60;;;;;;5073649;28;20384;-64
2021/04/27 06:41:31;;;;;;;2.33;1.00;;;20.80;25.80;;;;;;5074277;28;20031;-64
2021/04/27 06:43:57;;;;;;;3.45;0.75;;;20.70;25.90;;;;;;5074639;28;20443;-63
2021/04/27 06:46:22;;;;;;;3.25;1.55;;;20.70;26.00;;;;;;5074523;28;20064;-64
2021/04/27 06:48:48;;;;;;;3.47;0.90;;;20.70;26.00;;;;;;5074369;28;20039;-64
2021/04/27 06:51:17;;;;;;;2.65;1.00;;;20.70;26.00;;;;;;5078737;28;20463;-62
2021/04/27 06:53:43;;;;;;;4.05;1.20;;;20.70;26.00;;;;;;5099854;28;20070;-65
2021/04/27 06:56:09;;;;;;;4.05;1.02;;;20.70;26.10;;;;;;5079944;28;20039;-66
2021/04/27 06:58:35;;;;;;;2.92;0.98;;;20.70;25.90;;;;;;5094577;28;20020;-66
2021/04/27 07:01:00;;;;;;;2.70;0.75;;;20.70;26.00;;;;;;5094455;28;20028;-64
2021/04/27 07:03:26;;;;;;;4.63;1.25;;;20.70;26.00;;;;;;5092635;28;20106;-65
2021/04/27 07:05:51;;;;;;;3.05;1.00;;;20.70;26.00;;;;;;5093052;28;20032;-68
2021/04/27 07:08:17;;;;;;;1.40;0.80;;;20.80;26.00;;;;;;5093911;28;20046;-65
2021/04/27 07:10:42;;;;;;;2.35;0.73;;;20.80;26.10;;;;;;5094691;28;20035;-64
2021/04/27 07:13:08;;;;;;;2.78;1.00;;;20.80;26.00;;;;;;5094057;28;20043;-64
2021/04/27 07:15:34;;;;;;;3.80;0.85;;;20.80;26.10;;;;;;5093719;28;20027;-65
2021/04/27 07:17:59;;;;;;;3.38;0.93;;;20.80;26.10;;;;;;5094010;28;20016;-64
2021/04/27 07:20:25;;;;;;;2.78;0.82;;;20.90;26.10;;;;;;5093749;28;20475;-64
2021/04/27 07:22:50;;;;;;;3.63;1.00;;;20.90;26.10;;;;;;5093408;28;20051;-66
2021/04/27 07:25:16;;;;;;;2.83;0.80;;;20.80;26.10;;;;;;5092626;28;20090;-66
2021/04/27 07:27:42;;;;;;;2.20;0.82;;;20.80;26.10;;;;;;5093839;28;20073;-65
2021/04/27 07:30:10;;;;;;;1.90;0.77;;;20.90;26.10;;;;;;5092186;28;20609;-65
2021/04/27 07:32:36;;;;;;;3.67;0.70;;;20.90;26.00;;;;;;5073445;28;20013;-65
2021/04/27 07:35:03;;;;;;;2.78;0.90;;;20.90;26.00;;;;;;5072834;28;20027;-63
2021/04/27 07:37:30;;;;;;;2.28;0.90;;;20.90;26.00;;;;;;5073377;28;20068;-63
2021/04/27 07:39:55;;;;;;;1.38;0.60;;;21.00;26.10;;;;;;5073118;28;20074;-66
2021/04/27 07:42:21;;;;;;;2.00;0.80;;;21.00;26.00;;;;;;5073408;28;20025;-69
2021/04/27 07:44:47;;;;;;;4.32;0.90;;;21.00;26.00;;;;;;5072255;28;20077;-68
2021/04/27 07:47:12;;;;;;;3.58;1.50;;;21.00;26.00;;;;;;5075639;28;20029;-65
2021/04/27 07:49:38;;;;;;;3.22;0.95;;;21.00;26.00;;;;;;5074630;28;20549;-64
2021/04/27 07:52:03;;;;;;;4.63;1.02;;;21.00;26.00;;;;;;5077485;28;20035;-64
2021/04/27 07:54:29;;;;;;;3.45;0.77;;;21.00;26.00;;;;;;5092711;28;20028;-65
2021/04/27 07:56:55;;;;;;;2.28;0.82;;;21.00;26.00;;;;;;5093009;28;20028;-67
2021/04/27 07:59:20;;;;;;;2.47;1.08;;;21.00;26.00;;;;;;5092994;28;20095;-66
2021/04/27 08:01:46;;;;;;;2.25;0.80;;;21.00;26.10;;;;;;5092925;28;20043;-68
2021/04/27 08:04:14;;;;;;;2.67;0.90;;;21.00;26.10;;;;;;5091795;28;20024;-68
2021/04/27 08:06:40;;;;;;;2.03;0.77;;;21.00;26.10;;;;;;5091502;28;20054;-67
2021/04/27 08:09:06;;;;;;;2.45;0.88;;;21.00;26.10;;;;;;5092233;28;20487;-68
2021/04/27 08:11:32;;;;;;;3.05;0.90;;;21.00;25.90;;;;;;5093332;28;20036;-67
2021/04/27 08:13:57;;;;;;;5.30;1.00;;;21.00;26.00;;;;;;5093311;28;20017;-67
2021/04/27 08:16:23;;;;;;;5.90;0.95;;;21.00;26.00;;;;;;5092062;28;20533;-67
2021/04/27 08:18:49;;;;;;;2.38;0.80;;;21.00;26.00;;;;;;5092270;28;20396;-67
2021/04/27 08:21:15;;;;;;;2.22;1.08;;;21.00;25.90;;;;;;5092077;28;20051;-66
2021/04/27 08:23:41;;;;;;;5.25;1.08;;;21.00;25.90;;;;;;5092076;28;20036;-64
2021/04/27 08:26:08;;;;;;;4.22;1.30;;;21.00;26.00;;;;;;5092511;28;20036;-66
2021/04/27 08:28:34;;;;;;;2.55;0.82;;;21.00;26.00;;;;;;5092884;28;20024;-66
2021/04/27 08:31:00;;;;;;;6.10;1.23;;;21.00;25.90;;;;;;5083928;28;20025;-68
2021/04/27 08:33:26;;;;;;;2.67;0.95;;;21.00;25.90;;;;;;5072264;28;20112;-68
2021/04/27 08:35:52;;;;;;;2.63;0.85;;;21.00;25.90;;;;;;5072709;28;20353;-64
2021/04/27 08:38:19;;;;;;;1.95;0.70;;;21.00;26.00;;;;;;5072197;28;20027;-66
2021/04/27 08:40:45;;;;;;;2.67;1.00;;;21.00;26.10;;;;;;5073693;28;20027;-67
2021/04/27 08:43:13;;;;;;;2.15;0.75;;;21.10;26.00;;;;;;5073352;28;20060;-65
2021/04/27 08:45:40;;;;;;;2.22;0.80;;;21.10;25.90;;;;;;5074258;28;20040;-67
2021/04/27 08:48:09;;;;;;;4.22;0.80;;;21.10;26.10;;;;;;5078348;28;20101;-66
2021/04/27 08:50:35;;;;;;;3.20;0.90;;;21.10;25.90;;;;;;5092516;28;20024;-66
2021/04/27 08:53:01;;;;;;;4.28;1.00;;;21.10;26.00;;;;;;5092726;28;20520;-65
2021/04/27 08:55:27;;;;;;;1.75;0.60;;;21.10;26.00;;;;;;5092609;28;20486;-64
2021/04/27 08:57:53;;;;;;;2.28;0.70;;;21.10;26.00;;;;;;5092228;28;20020;-64
2021/04/27 09:00:20;;;;;;;2.15;0.88;;;21.10;26.10;;;;;;5092305;28;20035;-63
2021/04/27 09:02:54;;;;;;;3.40;0.82;;;21.10;26.00;;;;;;5091435;28;20472;-64
2021/04/27 09:05:27;;;;;;;2.70;1.15;;;21.10;26.10;;;;;;5091753;28;20119;-65
2021/04/27 09:07:53;;;;;;;4.28;0.80;;;21.10;26.00;;;;;;5091833;28;20056;-65
2021/04/27 09:10:22;;;;;;;2.55;0.95;;;21.20;25.80;;;;;;5092304;28;20020;-72
2021/04/27 09:12:55;;;;;;;3.83;0.80;;;21.10;25.90;;;;;;5092390;28;20023;-65
2021/04/27 09:15:30;;;;;;;2.45;0.70;;;21.20;26.00;;;;;;5091994;28;20027;-66
2021/04/27 09:17:55;;;;;;;1.40;0.73;;;21.20;26.00;;;;;;5092262;28;20028;-64
2021/04/27 09:20:22;;;;;;;0.95;0.57;;;21.20;26.00;;;;;;5091100;28;20375;-67
2021/04/27 09:22:47;;;;;;;3.78;0.93;;;21.20;26.10;;;;;;5090206;28;20097;-68
2021/04/27 09:25:14;;;;;;;2.55;0.70;;;21.20;26.10;;;;;;5091095;28;20493;-65
2021/04/27 09:27:48;;;;;;;2.05;1.08;;;21.20;26.10;;;;;;5096208;28;20020;-65
2021/04/27 09:30:23;;;;;;;2.77;0.90;;;21.20;26.00;;;;;;5093565;28;20051;-67
2021/04/27 09:32:52;;;;;;;3.33;0.80;;;21.20;26.00;;;;;;5073999;28;20511;-66
2021/04/27 09:35:22;;;;;;;2.47;0.68;;;21.30;26.00;;;;;;5075637;28;20028;-65
2021/04/27 09:38:06;;;;;;;2.45;0.88;;;21.20;26.00;;;;;;5074990;28;20242;-66
2021/04/27 09:40:32;;;;;;;5.78;1.42;;;21.20;26.00;;;;;;5074676;28;20035;-66
2021/04/27 09:43:06;;;;;;;2.53;0.90;;;21.20;26.10;;;;;;5088491;28;20028;-66
2021/04/27 09:45:46;;;;;;;1.73;0.63;;;21.20;26.10;;;;;;5074895;28;20040;-66
2021/04/27 09:48:12;;;;;;;1.40;0.80;;;21.30;26.10;;;;;;5075048;28;20494;-66
2021/04/27 09:50:38;;;;;;;2.35;0.80;;;21.20;26.00;;;;;;5073924;28;20096;-67
2021/04/27 09:53:05;;;;;;;1.65;0.60;;;21.20;26.10;;;;;;5079992;28;20024;-67
2021/04/27 09:55:31;;;;;;;2.25;0.68;;;21.30;26.10;;;;;;5095788;28;20031;-64
2021/04/27 09:57:58;;;;;;;1.85;0.77;;;21.30;26.00;;;;;;5095489;28;20028;-64
2021/04/27 10:00:27;;;;;;;1.40;0.68;;;21.30;26.00;;;;;;5095350;28;20060;-65
2021/04/27 10:02:55;;;;;;;3.33;1.00;;;21.30;26.00;;;;;;5095571;28;20363;-65
2021/04/27 10:05:21;;;;;;;2.75;0.93;;;21.30;26.00;;;;;;5094939;28;20028;-67
2021/04/27 10:07:46;;;;;;;4.45;1.25;;;21.30;26.00;;;;;;5095694;28;20486;-67
2021/04/27 10:10:15;;;;;;;3.92;0.98;;;21.40;26.00;;;;;;5095983;28;20073;-66
2021/04/27 10:12:41;;;;;;;4.93;0.90;;;21.40;26.00;;;;;;5095194;28;20031;-65
2021/04/27 10:15:09;;;;;;;1.60;0.60;;;21.40;26.00;;;;;;5095091;28;20050;-69
2021/04/27 10:17:35;;;;;;;1.90;0.73;;;21.50;26.00;;;;;;5095262;28;20103;-67
2021/04/27 10:20:03;;;;;;;4.15;0.90;;;21.50;25.90;;;;;;5095562;28;20095;-66
2021/04/27 10:22:28;;;;;;;3.75;0.85;;;21.50;25.90;;;;;;5094360;28;20577;-66
2021/04/27 10:24:56;;;;;;;3.03;0.90;;;21.50;25.80;;;;;;5093830;28;20028;-67
2021/04/27 10:27:26;;;;;;;2.50;0.88;;;21.50;26.00;;;;;;5095237;28;20020;-67
2021/04/27 10:30:17;;;;;;;1.83;0.70;;;21.50;26.00;;;;;;5094980;28;20032;-67
2021/04/27 10:33:06;;;;;;;2.90;0.73;;;21.50;26.00;;;;;;5074136;28;20429;-67
2021/04/27 10:35:40;;;;;;;3.17;1.55;;;21.50;26.00;;;;;;5074475;28;20119;-67
2021/04/27 10:38:18;;;;;;;2.72;0.70;;;21.50;25.90;;;;;;5073187;28;20044;-67
2021/04/27 10:40:51;;;;;;;3.40;1.08;;;21.50;26.00;;;;;;5074601;28;20116;-67
2021/04/27 10:43:26;;;;;;;1.58;0.82;;;21.50;25.90;;;;;;5073983;28;20039;-65
2021/04/27 10:46:01;;;;;;;2.03;0.73;;;21.50;25.90;;;;;;5074153;28;20041;-65
2021/04/27 10:48:27;;;;;;;4.05;0.70;;;21.50;25.90;;;;;;5074582;28;20410;-65
2021/04/27 10:50:53;;;;;;;1.10;0.52;;;21.50;25.90;;;;;;5075293;28;20439;-66
2021/04/27 10:53:28;;;;;;;2.67;0.73;;;21.50;25.90;;;;;;5075017;28;20024;-67
2021/04/27 10:55:54;;;;;;;2.50;0.80;;;21.60;25.80;;;;;;5074861;28;20033;-67
2021/04/27 10:58:44;;;;;;;3.30;1.00;;;21.60;25.80;;;;;;5077175;28;20028;-68
2021/04/27 11:01:27;;;;;;;3.83;0.80;;;21.60;25.60;;;;;;5074476;28;20111;-71
2021/04/27 11:03:55;;;;;;;2.95;0.85;;;21.60;25.60;;;;;;5090344;28;20028;-69
2021/04/27 11:06:21;;;;;;;2.97;1.15;;;21.60;25.70;;;;;;5093690;28;20494;-68
2021/04/27 11:08:48;;;;;;;1.35;0.57;;;21.70;25.80;;;;;;5094447;28;20024;-65
2021/04/27 11:11:19;;;;;;;2.85;0.85;;;21.70;25.70;;;;;;5093962;28;20073;-69
2021/04/27 11:13:45;;;;;;;3.38;0.77;;;21.70;25.70;;;;;;5093242;28;20106;-69
2021/04/27 11:16:27;;;;;;;2.38;0.63;;;21.80;25.70;;;;;;5075959;28;20376;-64
2021/04/27 11:19:09;;;;;;;4.57;1.27;;;21.80;25.70;;;;;;5073649;28;20028;-66
2021/04/27 11:21:34;;;;;;;1.90;0.90;;;21.70;25.70;;;;;;5076162;28;20040;-65
2021/04/27 11:24:02;;;;;;;4.20;0.82;;;21.80;25.70;;;;;;5093014;28;20073;-66
2021/04/27 11:26:34;;;;;;;2.08;0.60;;;21.80;25.80;;;;;;5093770;28;20028;-63
2021/04/27 11:29:07;;;;;;;2.50;0.57;;;21.90;25.80;;;;;;5093632;28;20039;-64
2021/04/27 11:31:54;;;;;;;2.25;0.90;;;21.80;25.70;;;;;;5094319;28;20471;-65
2021/04/27 11:34:20;;;;;;;3.53;0.70;;;22.00;25.60;;;;;;5093420;28;20032;-65
2021/04/27 11:36:46;;;;;;;2.40;1.05;;;21.90;25.60;;;;;;5093576;28;20031;-63
2021/04/27 11:39:23;;;;;;;3.97;0.90;;;22.00;25.60;;;;;;5093733;28;20060;-65
2021/04/27 11:42:01;;;;;;;2.33;0.80;;;21.90;25.60;;;;;;5091955;28;20111;-66
2021/04/27 11:44:36;;;;;;;2.45;0.63;;;22.00;25.60;;;;;;5093410;28;20035;-66
2021/04/27 11:47:02;;;;;;;3.10;0.90;;;22.00;25.60;;;;;;5093279;28;20043;-65
2021/04/27 11:49:57;;;;;;;2.72;0.60;;;22.10;25.50;;;;;;5093019;28;20020;-64
2021/04/27 11:52:45;;;;;;;4.75;0.82;;;22.10;25.60;;;;;;5077627;28;20476;-63
2021/04/27 11:55:20;;;;;;;3.50;0.73;;;22.10;25.50;;;;;;5072942;28;20136;-64
2021/04/27 11:57:49;;;;;;;1.88;0.85;;;22.20;25.50;;;;;;5092612;28;20024;-65
2021/04/27 12:00:15;;;;;;;3.45;0.88;;;22.20;25.40;;;;;;5092960;28;20484;-66
2021/04/27 12:02:41;;;;;;;2.67;1.00;;;22.30;25.40;;;;;;5093462;28;20042;-66
2021/04/27 12:05:07;;;;;;;1.77;0.68;;;22.30;25.40;;;;;;5093479;28;20031;-66
2021/04/27 12:07:33;;;;;;;2.65;1.00;;;22.40;25.30;;;;;;5092894;28;20039;-67
2021/04/27 12:09:59;;;;;;;1.60;0.68;;;22.50;25.30;;;;;;5091783;28;20077;-66
2021/04/27 12:12:26;;;;;;;1.98;0.80;;;22.50;25.20;;;;;;5100460;28;20066;-67
2021/04/27 12:14:54;;;;;;;3.28;0.88;;;22.50;25.30;;;;;;5092222;28;20051;-66
2021/04/27 12:17:36;;;;;;;1.88;0.70;;;22.50;25.20;;;;;;5092078;28;20187;-66
2021/04/27 12:20:03;;;;;;;2.65;0.77;;;22.60;25.20;;;;;;5092288;28;20564;-67
2021/04/27 12:22:30;;;;;;;1.85;0.60;;;22.70;25.10;;;;;;5092611;28;20404;-71
2021/04/27 12:24:56;;;;;;;1.83;0.43;;;22.70;25.00;;;;;;5092989;28;20043;-66
2021/04/27 12:27:22;;;;;;;2.22;0.68;;;22.70;25.10;;;;;;5092642;28;20036;-68
2021/04/27 12:29:49;;;;;;;2.45;0.60;;;22.80;25.00;;;;;;5092755;28;20052;-67
2021/04/27 12:32:17;;;;;;;1.95;0.50;;;22.90;24.90;;;;;;5092683;28;20486;-67
2021/04/27 12:35:03;;;;;;;2.50;0.98;;;22.90;25.00;;;;;;5093861;28;20031;-68
2021/04/27 12:37:31;;;;;;;2.88;0.47;;;23.00;24.90;;;;;;5102730;28;20012;-68
2021/04/27 12:39:58;;;;;;;3.38;0.40;;;23.00;24.70;;;;;;5100738;28;20052;-67
2021/04/27 12:42:23;;;;;;;2.67;0.70;;;23.10;24.80;;;;;;5092903;28;20070;-67
2021/04/27 12:45:00;;;;;;;1.13;0.60;;;23.10;24.70;;;;;;5092546;28;20031;-67
2021/04/27 12:47:30;;;;;;;4.63;0.90;;;23.20;24.80;;;;;;5094220;28;20039;-67
2021/04/27 12:50:08;;;;;;;3.53;0.55;;;23.20;24.70;;;;;;5093785;28;20532;-67
2021/04/27 12:52:55;;;;;;;1.48;0.40;;;23.20;24.70;;;;;;5095396;28;20040;-67